首页
METAR-TAF:

METAR-TAF

机场 :

Pocatello Regional Airport

波卡特洛, 爱达荷州, 美国

纬度: 42-55-13N, 经度: 112-34-16W, 海拔: 1356米

当前天气观测

该预报发布于33分钟前的07:53 UTC
风速13节,风向南转西南
温度 10°C
湿度 53%
气压 1013 hPa
能見度: 16.1公里
天空无云

METAR: KPIH 260753Z AUTO 21013KT 10SM CLR 10/01 A2992 RMK AO2 SLP106 T01000011

时间: 02:26 (08:26 UTC)

预报

该预报发布于3小时和6分钟前的05:20 UTC
预报有效从26日的 06点(UTC)到 27日的 06点(UTC)
风速12节,风向西南,有时为22节阵风
能見度: 10公里
少量云层高于20000英尺
从 26日的 1500点(UTC)
风速20节,风向西转西南,有时为30节阵风
能見度: 10公里
少量云层高于8000英尺
少量云层高于20000英尺
从 27日的 0300点(UTC)
风速14节,风向南转西南
能見度: 10公里
天空无云

TAF: KPIH 260520Z 2606/2706 23012G22KT P6SM FEW200 FM261500 25020G30KT P6SM FEW080 FEW200 FM270300 21014KT P6SM SKC

超过4000个机场的气象观测和天气预报(METAR&TAF报告)。

可查询的气象台以黄色和红色小点在地图上表示。

将鼠标移到小点上方,可查看气象台名称。

然后点击查看天气观测和预报。

如需切换地图:点击带黑十字的绿色按钮放大地图;点击带横线的绿色按钮缩小地图;或者点击绿色箭头查看邻近地区的地图。


METAR-TAF: